• Join FlightAware (Why Join?)
  • Login
  • US Flag 
10:32PM EDT


 

Airport Tracker/Info


-or-


 

Live Flight TrackerFlight Track Log ✈ CLH2157 ✈ 29-Apr-2012 ✈ EDDN / NUE - EDDM / MUC

Flight Track Log - Related Links

Times and Time Zones

All times are in EDT time to prevent confusion due to time zone crossing. See the CLH2157 flight status page for this flight to view local times or setup timezone preferences in your user account.

Time Position Orientation Groundspeed Altitude Reporting Facility
EDT Latitude Longitude Course Direction KTS MPH feet Rate Location/Type
07:46AM 49.4857 11.0863 158° South  Level Estimated
07:47AM 49.4341 11.1190 158° South  Level Estimated
07:48AM 49.3824 11.1516 158° South  Level Estimated
07:49AM 49.3307 11.1842 158° South  Level Estimated
07:50AM 49.2790 11.2167 158° South  Level Estimated
07:51AM 49.1756 11.2814 158° South  Level Estimated
07:52AM 49.0722 11.3459 158° South  Level Estimated
07:53AM 48.9687 11.4102 158° South  Level Estimated
07:54AM 48.8652 11.4741 158° South  Level Estimated
07:55AM 48.7617 11.5379 158° South  Level Estimated
07:56AM 48.6581 11.6013 158° South  Level Estimated
07:57AM 48.5545 11.6645 158° South  Level Estimated
07:58AM 48.4508 11.7274 158° South  Level Estimated
07:59AM 48.3471 11.7901 338° Northwest  Level Estimated
08:00AM 48.4508 11.7274 158° South  Level Estimated
08:01AM 48.3471 11.7901 338° Northwest  Level Estimated
08:02AM 48.4508 11.7274 158° South  Level Estimated
08:03AM 48.3471 11.7901 338° Northwest  Level Estimated
08:04AM 48.4508 11.7274 158° South  Level Estimated
08:05AM 48.3471 11.7901 338° Northwest  Level Estimated
08:06AM 48.4508 11.7274 158° South  Level Estimated
08:07AM 48.3471 11.7901 338° Northwest  Level Estimated
08:08AM 48.4508 11.7274 158° South  Level Estimated
08:09AM 48.3471 11.7901 338° Northwest  Level Estimated
08:10AM 48.4508 11.7274 338° Northwest  Level Estimated